Time;durP1;ratioP1;P1;durP2;ratioP2;P2;SDS_P1;SDS_P2;PMS_P1;PMS_P2;Temp;Humidity;BMP_temperature;BMP_pressure;BME280_temperature;BME280_humidity;BME280_pressure;Samples;Min_cycle;Max_cycle;Signal;HPM_P1;HPM_P2
2021/05/19 00:01:55;;;;;;;;;;;7.50;99.90;;;;;;10492754;28;19967;-72
2021/05/19 00:06:57;;;;;;;;;;;7.40;99.90;;;;;;10500797;28;20273;-72
2021/05/19 00:11:59;;;;;;;;;;;7.40;99.90;;;;;;10509667;28;20012;-72
2021/05/19 00:17:01;;;;;;;;;;;7.30;99.90;;;;;;10532017;28;19930;-72
2021/05/19 00:22:03;;;;;;;;;;;7.10;99.90;;;;;;10502052;28;20019;-72
2021/05/19 00:27:05;;;;;;;;;;;6.70;99.90;;;;;;10492641;28;19928;-72
2021/05/19 00:32:07;;;;;;;;;;;6.70;99.90;;;;;;10497098;28;19971;-72
2021/05/19 00:37:08;;;;;;;;;;;6.70;99.90;;;;;;10519755;28;20008;-71
2021/05/19 00:42:11;;;;;;;;;;;6.80;99.90;;;;;;10507615;28;19930;-73
2021/05/19 00:47:28;;;;;;;;;;;6.70;99.90;;;;;;10526312;28;19975;-72
2021/05/19 00:52:30;;;;;;;;;;;6.60;99.90;;;;;;10519370;28;19928;-73
2021/05/19 00:57:32;;;;;;;;;;;6.70;99.90;;;;;;10509636;28;19925;-72
2021/05/19 01:02:35;;;;;;;;;;;6.80;99.90;;;;;;10498696;28;20035;-71
2021/05/19 01:07:40;;;;;;;;;;;7.00;99.90;;;;;;10519361;28;20019;-73
2021/05/19 01:12:43;;;;;;;;;;;7.00;99.90;;;;;;10504992;28;20026;-72
2021/05/19 01:17:44;;;;;;;;;;;6.80;99.90;;;;;;10494227;28;19929;-72
2021/05/19 01:22:46;;;;;;;;;;;6.80;99.90;;;;;;10490612;28;20015;-71
2021/05/19 01:27:55;;;;;;;;;;;6.80;99.90;;;;;;10493311;28;19978;-72
2021/05/19 01:32:57;;;;;;;;;;;6.80;99.90;;;;;;10489747;28;20006;-72
2021/05/19 01:37:59;;;;;;;;;;;6.80;99.90;;;;;;10492425;28;20304;-72
2021/05/19 01:43:00;;;;;;;;;;;6.80;99.90;;;;;;10502440;28;20011;-72
2021/05/19 01:48:02;;;;;;;;;;;6.70;99.90;;;;;;10520775;28;20014;-72
2021/05/19 01:53:04;;;;;;;;;;;6.60;99.90;;;;;;10495832;28;19924;-72
2021/05/19 01:58:06;;;;;;;;;;;6.60;99.90;;;;;;10518505;28;19969;-72
2021/05/19 02:03:08;;;;;;;;;;;6.40;99.90;;;;;;10508114;28;20459;-71
2021/05/19 02:08:10;;;;;;;;;;;6.10;99.90;;;;;;10518560;28;19978;-72
2021/05/19 02:13:12;;;;;;;;;;;5.90;99.90;;;;;;10522093;28;20027;-73
2021/05/19 02:18:14;;;;;;;;;;;5.90;99.90;;;;;;10534789;28;19982;-72
2021/05/19 02:23:16;;;;;;;;;;;6.00;99.90;;;;;;10525760;28;19935;-72
2021/05/19 02:28:18;;;;;;;;;;;6.00;99.90;;;;;;10502901;28;19964;-72
2021/05/19 02:33:20;;;;;;;;;;;5.90;99.90;;;;;;10518814;28;20391;-72
2021/05/19 02:38:22;;;;;;;;;;;6.00;99.90;;;;;;10501744;28;19931;-72
2021/05/19 02:43:24;;;;;;;;;;;5.90;99.90;;;;;;10516004;28;19924;-72
2021/05/19 02:48:26;;;;;;;;;;;6.00;99.90;;;;;;10495276;28;19971;-72
2021/05/19 02:53:28;;;;;;;;;;;6.30;99.90;;;;;;10504547;28;19924;-72
2021/05/19 02:58:30;;;;;;;;;;;6.50;99.90;;;;;;10495033;28;19925;-72
2021/05/19 03:03:31;;;;;;;;;;;6.50;99.90;;;;;;10492173;28;20020;-71
2021/05/19 03:08:33;;;;;;;;;;;6.60;99.90;;;;;;10494221;28;19931;-71
2021/05/19 03:13:35;;;;;;;;;;;6.70;99.90;;;;;;10504725;28;20022;-71
2021/05/19 03:18:37;;;;;;;;;;;6.80;99.90;;;;;;10516636;28;19971;-71
2021/05/19 03:23:39;;;;;;;;;;;6.80;99.90;;;;;;10516505;28;19974;-71
2021/05/19 03:28:41;;;;;;;;;;;6.80;99.90;;;;;;10498523;28;19971;-72
2021/05/19 03:33:43;;;;;;;;;;;6.80;99.90;;;;;;10516665;28;20019;-72
2021/05/19 03:38:45;;;;;;;;;;;6.80;99.90;;;;;;10526594;28;20433;-72
2021/05/19 03:43:46;;;;;;;;;;;6.80;99.90;;;;;;10518358;28;19999;-72
2021/05/19 03:48:50;;;;;;;;;;;6.80;99.90;;;;;;10518699;28;20011;-72
2021/05/19 03:53:52;;;;;;;;;;;6.90;99.90;;;;;;10533129;28;20385;-72
2021/05/19 03:58:54;;;;;;;;;;;6.80;99.90;;;;;;10513442;28;20005;-72
2021/05/19 04:03:56;;;;;;;;;;;6.70;99.90;;;;;;10505604;28;19924;-71
2021/05/19 04:08:58;;;;;;;;;;;6.80;99.90;;;;;;10502442;28;19967;-71
2021/05/19 04:13:59;;;;;;;;;;;6.80;99.90;;;;;;10493629;28;20019;-71
2021/05/19 04:19:03;;;;;;;;;;;6.90;99.90;;;;;;10516086;28;20007;-72
2021/05/19 04:24:04;;;;;;;;;;;7.00;99.90;;;;;;10521071;28;19924;-72
2021/05/19 04:29:06;;;;;;;;;;;7.10;99.90;;;;;;10499710;28;19964;-72
2021/05/19 04:34:08;;;;;;;;;;;7.20;99.90;;;;;;10505290;28;20820;-72
2021/05/19 04:39:10;;;;;;;;;;;7.30;99.90;;;;;;10527684;28;20030;-72
2021/05/19 04:44:11;;;;;;;;;;;7.40;99.90;;;;;;10508736;28;19924;-72
2021/05/19 04:49:13;;;;;;;;;;;7.50;99.90;;;;;;10525106;28;19931;-72
2021/05/19 04:54:15;;;;;;;;;;;8.00;99.90;;;;;;10516982;28;20362;-72
2021/05/19 04:59:17;;;;;;;;;;;8.40;99.90;;;;;;10499415;28;20383;-72
2021/05/19 05:04:19;;;;;;;;;;;10.50;99.90;;;;;;10507938;28;20258;-71
2021/05/19 05:09:20;;;;;;;;;;;12.30;99.90;;;;;;10533930;28;20396;-71
2021/05/19 05:14:22;;;;;;;;;;;11.30;99.90;;;;;;10490626;28;19925;-72
2021/05/19 05:19:24;;;;;;;;;;;10.60;99.90;;;;;;10488714;28;20403;-72
2021/05/19 05:24:26;;;;;;;;;;;10.20;99.90;;;;;;10495658;28;19924;-71
2021/05/19 05:29:28;;;;;;;;;;;10.00;99.90;;;;;;10495014;28;20000;-72
2021/05/19 05:34:29;;;;;;;;;;;9.70;99.90;;;;;;10510765;28;20442;-72
2021/05/19 05:39:31;;;;;;;;;;;9.50;99.90;;;;;;10514037;28;20323;-72
2021/05/19 05:44:33;;;;;;;;;;;9.70;99.90;;;;;;10508167;28;19933;-71
2021/05/19 05:49:35;;;;;;;;;;;10.00;99.90;;;;;;10501757;28;19927;-72
2021/05/19 05:54:38;;;;;;;;;;;10.00;99.90;;;;;;10501183;28;20291;-71
2021/05/19 05:59:40;;;;;;;;;;;10.00;99.90;;;;;;10526515;28;20265;-72
2021/05/19 06:04:41;;;;;;;;;;;10.10;99.90;;;;;;10504486;28;19990;-72
2021/05/19 06:09:51;;;;;;;;;;;10.30;99.90;;;;;;10497431;28;19931;-72
2021/05/19 06:14:53;;;;;;;;;;;10.00;99.90;;;;;;10527145;28;19963;-72
2021/05/19 06:19:55;;;;;;;;;;;10.10;99.90;;;;;;10513342;28;20002;-71
2021/05/19 06:24:57;;;;;;;;;;;10.50;99.90;;;;;;10491408;28;19932;-72
2021/05/19 06:29:58;;;;;;;;;;;11.40;99.90;;;;;;10487958;28;19924;-71
2021/05/19 06:35:00;;;;;;;;;;;11.80;99.90;;;;;;10504162;28;19932;-72
2021/05/19 06:40:04;;;;;;;;;;;12.00;99.90;;;;;;10486015;28;19978;-71
2021/05/19 06:45:06;;;;;;;;;;;12.30;99.90;;;;;;10496818;28;19970;-71
2021/05/19 06:50:08;;;;;;;;;;;12.60;99.90;;;;;;10488262;28;20023;-71
2021/05/19 06:55:12;;;;;;;;;;;12.40;99.90;;;;;;10496785;28;19928;-71
2021/05/19 07:00:14;;;;;;;;;;;12.50;99.90;;;;;;10505565;28;20019;-72
2021/05/19 07:05:20;;;;;;;;;;;13.30;99.90;;;;;;10525103;28;19931;-71
2021/05/19 07:10:23;;;;;;;;;;;13.80;99.90;;;;;;10503054;28;20374;-71
2021/05/19 07:15:31;;;;;;;;;;;14.10;99.90;;;;;;10519250;28;19924;-71
2021/05/19 07:20:33;;;;;;;;;;;14.10;99.90;;;;;;10495355;28;20018;-71
2021/05/19 07:25:34;;;;;;;;;;;14.40;99.90;;;;;;10504076;28;19935;-72
2021/05/19 07:30:37;;;;;;;;;;;14.60;99.90;;;;;;10528549;28;20891;-65
2021/05/19 07:35:39;;;;;;;;;;;15.10;99.90;;;;;;10516518;28;19928;-65
2021/05/19 07:40:41;;;;;;;;;;;15.40;99.90;;;;;;10533686;28;20027;-66
2021/05/19 07:45:43;;;;;;;;;;;14.80;99.90;;;;;;10529564;28;19931;-66
2021/05/19 07:50:44;;;;;;;;;;;14.40;99.90;;;;;;10506059;28;19913;-66
2021/05/19 08:01:11;;;;;;;;;;;13.90;99.90;;;;;;10514895;28;19916;-66
2021/05/19 08:06:11;;;;;;;;;;;13.80;99.90;;;;;;10521714;28;19920;-65
2021/05/19 08:11:15;;;;;;;;;;;14.80;99.90;;;;;;10502722;28;19912;-65
2021/05/19 08:16:16;;;;;;;;;;;16.50;99.90;;;;;;10493629;28;19931;-65
2021/05/19 08:21:17;;;;;;;;;;;16.70;99.90;;;;;;10517392;28;19927;-64
2021/05/19 08:26:19;;;;;;;;;;;16.70;99.90;;;;;;10489509;28;19924;-64
2021/05/19 08:31:20;;;;;;;;;;;16.10;99.90;;;;;;10490471;28;19931;-64
2021/05/19 08:36:37;;;;;;;;;;;16.10;99.90;;;;;;10491325;28;19971;-64
2021/05/19 08:41:43;;;;;;;;;;;17.00;99.90;;;;;;10490383;28;19925;-64
2021/05/19 08:46:46;;;;;;;;;;;17.30;99.90;;;;;;10491486;28;19928;-64
2021/05/19 08:51:48;;;;;;;;;;;16.70;99.90;;;;;;10489559;28;19925;-64
2021/05/19 08:56:50;;;;;;;;;;;17.60;99.90;;;;;;10490065;28;20023;-64
2021/05/19 09:01:52;;;;;;;;;;;18.50;96.00;;;;;;10491220;28;20362;-65
2021/05/19 09:06:55;;;;;;;;;;;18.80;93.70;;;;;;10489383;28;20155;-64
2021/05/19 09:11:59;;;;;;;;;;;18.80;90.50;;;;;;10489556;28;20376;-64
2021/05/19 09:17:19;;;;;;;;;;;17.60;92.20;;;;;;10489366;28;19928;-64
2021/05/19 09:22:23;;;;;;;;;;;18.20;92.80;;;;;;10488851;28;20300;-64
2021/05/19 09:27:37;;;;;;;;;;;18.90;88.70;;;;;;10489543;28;19924;-64
2021/05/19 09:32:42;;;;;;;;;;;19.40;84.70;;;;;;10489524;28;19967;-64
2021/05/19 09:37:44;;;;;;;;;;;19.40;77.80;;;;;;10488346;28;19968;-64
2021/05/19 09:42:49;;;;;;;;;;;19.40;71.00;;;;;;10488903;28;19972;-64
2021/05/19 09:47:51;;;;;;;;;;;19.00;67.90;;;;;;10488504;28;20368;-64
2021/05/19 09:53:09;;;;;;;;;;;18.70;66.40;;;;;;10487935;28;19959;-64
2021/05/19 09:58:14;;;;;;;;;;;18.90;68.40;;;;;;10487825;28;20059;-64
2021/05/19 10:03:19;;;;;;;;;;;18.90;63.80;;;;;;10487870;28;20386;-64
2021/05/19 10:08:20;;;;;;;;;;;18.90;59.30;;;;;;10487196;28;20026;-64
2021/05/19 10:13:23;;;;;;;;;;;18.50;56.30;;;;;;10488725;28;19962;-64
2021/05/19 10:18:26;;;;;;;;;;;18.60;56.90;;;;;;10485675;28;19924;-64
2021/05/19 10:23:41;;;;;;;;;;;18.50;55.70;;;;;;10487573;28;20016;-64
2021/05/19 10:28:44;;;;;;;;;;;18.50;54.50;;;;;;10486852;28;20027;-64
2021/05/19 10:33:47;;;;;;;;;;;19.00;56.60;;;;;;10486177;28;19960;-64
2021/05/19 10:39:12;;;;;;;;;;;19.40;55.60;;;;;;10487052;28;20338;-64
2021/05/19 10:44:31;;;;;;;;;;;19.30;53.70;;;;;;10488101;28;20015;-64
2021/05/19 10:49:42;;;;;;;;;;;19.40;56.20;;;;;;10486749;28;19928;-64
2021/05/19 11:00:25;;;;;;;;;;;19.20;55.50;;;;;;10487224;28;19935;-64
2021/05/19 11:05:31;;;;;;;;;;;19.10;55.20;;;;;;10486005;28;19993;-64
2021/05/19 11:10:36;;;;;;;;;;;18.90;56.50;;;;;;10486842;28;20015;-64
2021/05/19 11:21:01;;;;;;;;;;;18.00;55.60;;;;;;10464365;28;20343;-64
2021/05/19 11:26:13;;;;;;;;;;;18.00;55.70;;;;;;10486670;28;19931;-64
2021/05/19 11:31:16;;;;;;;;;;;17.90;56.50;;;;;;10484174;28;19924;-64
2021/05/19 11:36:40;;;;;;;;;;;17.60;56.00;;;;;;10485333;28;19960;-64
2021/05/19 11:41:42;;;;;;;;;;;17.90;56.50;;;;;;10487438;28;19975;-64
2021/05/19 11:46:43;;;;;;;;;;;18.30;55.80;;;;;;10492200;28;20547;-64
2021/05/19 11:51:45;;;;;;;;;;;18.50;52.70;;;;;;10525755;28;20023;-64
2021/05/19 11:56:48;;;;;;;;;;;18.50;53.20;;;;;;10493511;28;20353;-64
2021/05/19 12:01:53;;;;;;;;;;;18.10;52.30;;;;;;10491778;28;19995;-64
2021/05/19 12:06:56;;;;;;;;;;;17.80;52.90;;;;;;10525315;28;20292;-64
2021/05/19 12:12:05;;;;;;;;;;;17.70;54.00;;;;;;10492282;28;20431;-64
2021/05/19 12:17:07;;;;;;;;;;;17.90;55.10;;;;;;10491589;28;19924;-64
2021/05/19 12:22:10;;;;;;;;;;;17.60;57.20;;;;;;10490986;28;19982;-64
2021/05/19 12:27:16;;;;;;;;;;;17.20;60.60;;;;;;10491804;28;19925;-64
2021/05/19 12:32:18;;;;;;;;;;;16.70;62.50;;;;;;10490129;28;19929;-64
2021/05/19 12:37:34;;;;;;;;;;;16.30;64.60;;;;;;10491607;28;20027;-64
2021/05/19 12:42:41;;;;;;;;;;;16.00;66.70;;;;;;10490241;28;19932;-64
2021/05/19 12:47:44;;;;;;;;;;;16.00;74.00;;;;;;10490890;28;20035;-64
2021/05/19 12:52:47;;;;;;;;;;;16.20;76.40;;;;;;10488999;28;19981;-64
2021/05/19 12:57:48;;;;;;;;;;;16.30;76.80;;;;;;10489824;28;19971;-64
2021/05/19 13:02:50;;;;;;;;;;;16.10;77.80;;;;;;10505102;28;20042;-64
2021/05/19 13:07:52;;;;;;;;;;;16.00;76.20;;;;;;10490211;28;20055;-64
2021/05/19 13:13:04;;;;;;;;;;;16.00;76.80;;;;;;10489461;28;19925;-64
2021/05/19 13:23:09;;;;;;;;;;;16.20;76.00;;;;;;10490089;28;20019;-64
2021/05/19 13:28:20;;;;;;;;;;;16.30;75.10;;;;;;10488315;28;19929;-64
2021/05/19 13:33:38;;;;;;;;;;;16.50;73.30;;;;;;10489576;28;20035;-64
2021/05/19 13:38:40;;;;;;;;;;;16.70;73.40;;;;;;10489159;28;20020;-64
2021/05/19 13:43:43;;;;;;;;;;;16.80;73.50;;;;;;10488782;28;20019;-64
2021/05/19 13:48:44;;;;;;;;;;;16.90;71.40;;;;;;10488199;28;20027;-64
2021/05/19 13:53:47;;;;;;;;;;;17.10;67.50;;;;;;10489154;28;20628;-64
2021/05/19 13:58:49;;;;;;;;;;;17.30;67.70;;;;;;10487896;28;20007;-64
2021/05/19 14:03:51;;;;;;;;;;;17.40;66.30;;;;;;10485549;28;20019;-64
2021/05/19 14:08:53;;;;;;;;;;;17.20;66.90;;;;;;10487655;28;19967;-64
2021/05/19 14:14:11;;;;;;;;;;;17.20;64.60;;;;;;10488097;28;19954;-64
2021/05/19 14:29:44;;;;;;;;;;;16.80;64.50;;;;;;10520910;28;19927;-65
2021/05/19 14:34:50;;;;;;;;;;;16.80;64.50;;;;;;10492186;28;19967;-64
2021/05/19 15:01:26;;;;;;;;;;;17.80;60.10;;;;;;10450480;28;20277;-65
2021/05/19 15:06:27;;;;;;;;;;;17.70;60.00;;;;;;10518603;28;19924;-65
2021/05/19 15:11:29;;;;;;;;;;;17.50;63.50;;;;;;10486358;28;19974;-65
2021/05/19 15:16:31;;;;;;;;;;;17.40;62.50;;;;;;10488373;28;19959;-65
2021/05/19 15:21:37;;;;;;;;;;;17.50;64.70;;;;;;10493881;28;20331;-65
2021/05/19 15:26:39;;;;;;;;;;;17.40;65.90;;;;;;10494533;28;19925;-65
2021/05/19 15:31:41;;;;;;;;;;;17.50;64.70;;;;;;10493620;28;19931;-65
2021/05/19 15:36:43;;;;;;;;;;;17.20;66.80;;;;;;10493980;28;20331;-65
2021/05/19 15:41:45;;;;;;;;;;;16.60;66.90;;;;;;10491815;28;20376;-65
2021/05/19 15:46:49;;;;;;;;;;;16.60;67.60;;;;;;10492011;28;19928;-64
2021/05/19 15:51:56;;;;;;;;;;;16.40;67.80;;;;;;10492681;28;20261;-65
2021/05/19 15:56:58;;;;;;;;;;;16.30;67.60;;;;;;10491297;28;19975;-64
2021/05/19 16:02:00;;;;;;;;;;;16.30;68.40;;;;;;10491648;28;20016;-65
2021/05/19 16:07:02;;;;;;;;;;;16.40;67.10;;;;;;10492682;28;19928;-65
2021/05/19 16:12:04;;;;;;;;;;;16.40;67.80;;;;;;10491527;28;20304;-65
2021/05/19 16:17:07;;;;;;;;;;;16.30;67.90;;;;;;10532168;28;20446;-65
2021/05/19 16:22:08;;;;;;;;;;;16.20;68.80;;;;;;10528933;28;20415;-64
2021/05/19 16:27:10;;;;;;;;;;;16.20;69.40;;;;;;10489853;28;20595;-64
2021/05/19 16:32:12;;;;;;;;;;;16.20;69.80;;;;;;10489476;28;20019;-65
2021/05/19 16:37:14;;;;;;;;;;;16.20;69.30;;;;;;10490891;28;20016;-65
2021/05/19 16:42:16;;;;;;;;;;;16.00;69.40;;;;;;10489186;28;20023;-65
2021/05/19 16:47:18;;;;;;;;;;;16.00;69.10;;;;;;10489603;28;20011;-65
2021/05/19 16:52:21;;;;;;;;;;;15.80;71.20;;;;;;10489956;28;20019;-64
2021/05/19 16:57:22;;;;;;;;;;;15.40;70.10;;;;;;10489475;28;20371;-65
2021/05/19 17:07:28;;;;;;;;;;;15.50;73.50;;;;;;10488321;28;19990;-65
2021/05/19 17:12:29;;;;;;;;;;;15.30;73.90;;;;;;10488981;28;20027;-64
2021/05/19 17:17:31;;;;;;;;;;;15.40;73.00;;;;;;10485686;28;19985;-65
2021/05/19 17:22:33;;;;;;;;;;;15.30;77.30;;;;;;10487913;28;20023;-65
2021/05/19 17:27:35;;;;;;;;;;;14.90;81.10;;;;;;10487580;28;20032;-65
2021/05/19 17:32:45;;;;;;;;;;;14.70;82.40;;;;;;10488786;28;19925;-65
2021/05/19 17:37:48;;;;;;;;;;;14.40;85.20;;;;;;10487532;28;19974;-65
2021/05/19 17:42:50;;;;;;;;;;;14.00;89.40;;;;;;10487815;28;20011;-65
2021/05/19 17:47:52;;;;;;;;;;;13.80;90.80;;;;;;10486135;28;19925;-65
2021/05/19 17:52:54;;;;;;;;;;;13.50;91.80;;;;;;10487334;28;20363;-65
2021/05/19 17:57:55;;;;;;;;;;;13.60;92.70;;;;;;10485314;28;20019;-65
2021/05/19 18:02:57;;;;;;;;;;;13.70;92.70;;;;;;10486424;28;20033;-65
2021/05/19 18:07:59;;;;;;;;;;;13.70;93.40;;;;;;10486165;28;19991;-65
2021/05/19 18:13:01;;;;;;;;;;;13.40;94.10;;;;;;10486085;28;20020;-65
2021/05/19 18:18:03;;;;;;;;;;;13.10;96.00;;;;;;10484708;28;19925;-64
2021/05/19 18:23:08;;;;;;;;;;;12.90;97.80;;;;;;10486855;28;19924;-64
2021/05/19 18:28:10;;;;;;;;;;;12.60;99.90;;;;;;10485837;28;20130;-64
2021/05/19 18:33:30;;;;;;;;;;;12.50;99.90;;;;;;10486678;28;20022;-64
2021/05/19 18:38:33;;;;;;;;;;;12.20;99.90;;;;;;10486304;28;20385;-65
2021/05/19 18:43:35;;;;;;;;;;;12.00;99.90;;;;;;10486686;28;19925;-64
2021/05/19 18:48:37;;;;;;;;;;;12.10;99.90;;;;;;10486128;28;20019;-64
2021/05/19 18:53:39;;;;;;;;;;;11.90;99.90;;;;;;10491276;28;20359;-65
2021/05/19 18:58:41;;;;;;;;;;;11.60;99.90;;;;;;10491500;28;19929;-64
2021/05/19 19:03:43;;;;;;;;;;;11.40;99.90;;;;;;10493496;28;20335;-64
2021/05/19 19:08:46;;;;;;;;;;;11.30;99.90;;;;;;10493972;28;19925;-64
2021/05/19 19:13:47;;;;;;;;;;;11.50;99.90;;;;;;10492577;28;20451;-64
2021/05/19 19:18:49;;;;;;;;;;;11.60;99.90;;;;;;10493563;28;20031;-64
2021/05/19 19:23:51;;;;;;;;;;;11.50;99.90;;;;;;10492594;28;19925;-64
2021/05/19 19:28:53;;;;;;;;;;;11.20;99.90;;;;;;10491962;28;19962;-64
2021/05/19 19:33:55;;;;;;;;;;;11.20;99.90;;;;;;10492887;28;20321;-64
2021/05/19 19:38:56;;;;;;;;;;;11.30;99.90;;;;;;10492578;28;20384;-64
2021/05/19 19:44:02;;;;;;;;;;;11.20;99.90;;;;;;10492733;28;20372;-65
2021/05/19 19:49:11;;;;;;;;;;;11.10;99.90;;;;;;10492211;28;19925;-64
2021/05/19 19:54:14;;;;;;;;;;;11.20;99.90;;;;;;10490911;28;19929;-64
2021/05/19 19:59:15;;;;;;;;;;;11.30;99.90;;;;;;10491343;28;19924;-64
2021/05/19 20:04:18;;;;;;;;;;;11.20;99.90;;;;;;10490092;28;19947;-64
2021/05/19 20:09:24;;;;;;;;;;;11.30;99.90;;;;;;10489912;28;20011;-64
2021/05/19 20:14:26;;;;;;;;;;;11.20;99.90;;;;;;10488699;28;20042;-64
2021/05/19 20:19:28;;;;;;;;;;;11.30;99.90;;;;;;10490430;28;20352;-64
2021/05/19 20:24:30;;;;;;;;;;;11.30;99.90;;;;;;10490504;28;19983;-64
2021/05/19 20:29:32;;;;;;;;;;;11.30;99.90;;;;;;10489735;28;19924;-64
2021/05/19 20:34:34;;;;;;;;;;;11.30;99.90;;;;;;10490866;28;19928;-64
2021/05/19 20:39:37;;;;;;;;;;;11.40;99.90;;;;;;10490472;28;20007;-64
2021/05/19 20:44:39;;;;;;;;;;;11.40;99.90;;;;;;10489687;28;19935;-65
2021/05/19 20:49:41;;;;;;;;;;;11.40;99.90;;;;;;10489632;28;19924;-64
2021/05/19 20:55:01;;;;;;;;;;;11.50;99.90;;;;;;10490316;28;19970;-64
2021/05/19 21:00:04;;;;;;;;;;;11.40;99.90;;;;;;10488860;28;20047;-64
2021/05/19 21:05:06;;;;;;;;;;;11.30;99.90;;;;;;10491520;28;19924;-65
2021/05/19 21:10:08;;;;;;;;;;;11.20;99.90;;;;;;10491796;28;19976;-72
2021/05/19 21:15:13;;;;;;;;;;;11.30;99.90;;;;;;10494020;28;20023;-70
2021/05/19 21:20:15;;;;;;;;;;;11.30;99.90;;;;;;10496198;28;20011;-71
2021/05/19 21:25:17;;;;;;;;;;;11.30;99.90;;;;;;10495762;28;20016;-72
2021/05/19 21:30:19;;;;;;;;;;;11.30;99.90;;;;;;10494531;28;20022;-71
2021/05/19 21:35:21;;;;;;;;;;;11.20;99.90;;;;;;10513832;28;20026;-70
2021/05/19 21:40:23;;;;;;;;;;;11.30;99.90;;;;;;10512503;28;20017;-71
2021/05/19 21:45:26;;;;;;;;;;;11.30;99.90;;;;;;10506042;28;20007;-72
2021/05/19 21:50:28;;;;;;;;;;;11.20;99.90;;;;;;10491081;28;20343;-71
2021/05/19 21:55:30;;;;;;;;;;;11.10;99.90;;;;;;10483978;28;20015;-72
2021/05/19 22:00:31;;;;;;;;;;;11.00;99.90;;;;;;10485930;28;19932;-71
2021/05/19 22:05:35;;;;;;;;;;;11.00;99.90;;;;;;10476998;28;19924;-71
2021/05/19 22:10:38;;;;;;;;;;;10.90;99.90;;;;;;10489817;28;19933;-71
2021/05/19 22:15:40;;;;;;;;;;;10.90;99.90;;;;;;10485944;28;19982;-71
2021/05/19 22:26:13;;;;;;;;;;;10.80;99.90;;;;;;10452698;28;20290;-71
2021/05/19 22:31:16;;;;;;;;;;;10.80;99.90;;;;;;10494617;28;19944;-71
2021/05/19 22:36:19;;;;;;;;;;;10.70;99.90;;;;;;10502537;28;19928;-72
2021/05/19 22:41:22;;;;;;;;;;;10.70;99.90;;;;;;10503492;28;19967;-72
2021/05/19 22:46:24;;;;;;;;;;;10.60;99.90;;;;;;10491724;28;19979;-72
2021/05/19 22:51:26;;;;;;;;;;;10.50;99.90;;;;;;10526585;28;19924;-72
2021/05/19 22:56:28;;;;;;;;;;;10.50;99.90;;;;;;10519698;28;19938;-72
2021/05/19 23:01:30;;;;;;;;;;;10.30;99.90;;;;;;10507776;28;19924;-72
2021/05/19 23:06:32;;;;;;;;;;;10.20;99.90;;;;;;10520862;28;20011;-72
2021/05/19 23:11:34;;;;;;;;;;;10.00;99.90;;;;;;10489542;28;20015;-71
2021/05/19 23:16:37;;;;;;;;;;;10.00;99.90;;;;;;10494643;28;20020;-72
2021/05/19 23:21:39;;;;;;;;;;;10.00;99.90;;;;;;10512404;28;19928;-72
2021/05/19 23:26:40;;;;;;;;;;;10.00;99.90;;;;;;10497976;28;20277;-72
2021/05/19 23:31:42;;;;;;;;;;;10.10;99.90;;;;;;10505695;28;19931;-72
2021/05/19 23:36:44;;;;;;;;;;;10.10;99.90;;;;;;10487252;28;20028;-71
2021/05/19 23:41:46;;;;;;;;;;;10.10;99.90;;;;;;10494384;28;19966;-72
2021/05/19 23:46:48;;;;;;;;;;;10.10;99.90;;;;;;10502430;28;20361;-72
2021/05/19 23:51:49;;;;;;;;;;;10.00;99.90;;;;;;10506412;28;19925;-72
2021/05/19 23:56:51;;;;;;;;;;;10.00;99.90;;;;;;10529276;28;19924;-73
